Weather History for KBIE - January, 2000

Change the Weather History Date:

Saturday, January 15, 2000

  Actual Average Record
Temperature  
Mean Temperature 44 °F -  
Max Temperature 59 °F 35 °F 64 °F (2006)
Min Temperature 30 °F 16 °F -7 °F (2009)
Degree Days  
Heating Degree Days 20    
Moisture  
Dew Point 23 °F    
Average Humidity 45    
Maximum Humidity 70    
Minimum Humidity 29    
Precipitation  
Precipitation 0.00 in - - ()
Sea Level Pressure  
Sea Level Pressure 30.05 in    
Wind  
Wind Speed 13 mph (SSW)    
Max Wind Speed 22 mph    
Max Gust Speed 25 mph    
Visibility 10 miles    
Events      
Averages and records for this station are not official NWS values.
T = Trace of Precipitation, MM = Missing Value Source: NWS Daily Summary

Daily Weather History Graph

Daily Weather History Graph

Search for Another Location

Airport or City:

Trip Planner

Search our weather history database for the weather conditions in past years. The results will help you decide how hot, cold, wet, or windy it might be!

Date:

Astronomy

Jan. 15, 2000 Rise Set
Actual Time 7:48 AM CST 5:24 PM CST
Civil Twilight 7:18 AM CST 5:54 PM CST
Nautical Twilight 6:44 AM CST 6:28 PM CST
Astronomical Twilight 6:11 AM CST 7:01 PM CST
Moon 12:54 PM CST (1/15) 1:31 AM CST (1/15)
Length of Visible Light 10h 36m
Length of Day
9h 36m
Waxing Gibbous, 63% of the Moon is Illuminated
Jan 15
Waxing Gibbous
Jan 20
Full
Jan 28
Last Quarter
Feb 5
New
Feb 12
First Quarter

Hourly Weather History & Observations

Time (CST) Temp. Windchill Dew Point Humidity Pressure Visibility Wind Dir Wind Speed Gust Speed Precip Events Conditions
12:10 AM 42.8 °F 35.8 °F 19.4 °F 39% 30.14 in 10.0 mi South 13.8 mph - N/A   Clear
12:31 AM 42.8 °F 36.2 °F 19.4 °F 39% 30.12 in 10.0 mi South 12.7 mph 20.7 mph N/A   Clear
12:53 AM 42.8 °F 35.4 °F 19.4 °F 39% 30.10 in 10.0 mi South 15.0 mph - N/A   Clear
1:10 AM 42.8 °F 35.4 °F 19.4 °F 39% 30.10 in 10.0 mi SSW 15.0 mph 20.7 mph N/A   Clear
1:51 AM 42.8 °F 35.4 °F 19.4 °F 39% 30.08 in 10.0 mi SSW 15.0 mph - N/A   Clear
2:12 AM 42.8 °F 35.1 °F 19.4 °F 39% 30.08 in 10.0 mi SSW 16.1 mph - N/A   Clear
3:10 AM 42.8 °F 35.4 °F 19.4 °F 39% 30.07 in 10.0 mi SSW 15.0 mph - N/A   Clear
3:31 AM 42.8 °F 34.8 °F 19.4 °F 39% 30.06 in 10.0 mi SSW 17.3 mph - N/A   Clear
3:51 AM 42.8 °F 34.8 °F 21.2 °F 42% 30.06 in 10.0 mi SSW 17.3 mph - N/A   Clear
4:10 AM 42.8 °F 34.8 °F 21.2 °F 42% 30.05 in 10.0 mi SSW 17.3 mph 21.9 mph N/A   Clear
4:51 AM 42.8 °F 35.1 °F 21.2 °F 42% 30.04 in 10.0 mi South 16.1 mph 23.0 mph N/A   Clear
5:11 AM 42.8 °F 35.4 °F 21.2 °F 42% 30.03 in 10.0 mi South 15.0 mph 20.7 mph N/A   Clear
5:30 AM 42.8 °F 36.2 °F 21.2 °F 42% 30.03 in 10.0 mi South 12.7 mph - N/A   Clear
5:50 AM 42.8 °F 36.6 °F 21.2 °F 42% 30.03 in 10.0 mi SSW 11.5 mph 19.6 mph N/A   Clear
6:34 AM 41.0 °F 33.5 °F 21.2 °F 45% 30.03 in 10.0 mi SSW 13.8 mph - N/A   Clear
6:55 AM 39.2 °F 31.2 °F 21.2 °F 49% 30.02 in 10.0 mi SSW 13.8 mph - N/A   Clear
7:10 AM 39.2 °F 32.0 °F 21.2 °F 49% 30.03 in 10.0 mi SSW 11.5 mph - N/A   Clear
7:33 AM 39.2 °F 32.5 °F 21.2 °F 49% 30.02 in 10.0 mi South 10.4 mph - N/A   Clear
7:52 AM 37.4 °F 30.8 °F 23.0 °F 56% 30.02 in 10.0 mi South 9.2 mph - N/A   Clear
8:09 AM 37.4 °F 29.8 °F 21.2 °F 52% 30.01 in 10.0 mi South 11.5 mph - N/A   Clear
8:31 AM 39.2 °F 31.2 °F 23.0 °F 52% 30.01 in 10.0 mi South 13.8 mph - N/A   Clear
8:51 AM 39.2 °F 32.5 °F 23.0 °F 52% 30.02 in 10.0 mi SSW 10.4 mph - N/A   Clear
9:30 AM 41.0 °F 33.1 °F 23.0 °F 49% 30.01 in 10.0 mi South 15.0 mph - N/A   Clear
9:51 AM 42.8 °F 35.8 °F 24.8 °F 49% 30.01 in 10.0 mi South 13.8 mph - N/A   Clear
10:09 AM 44.6 °F 38.1 °F 24.8 °F 46% 30.03 in 10.0 mi SSW 13.8 mph - N/A   Clear
10:31 AM 44.6 °F 37.8 °F 24.8 °F 46% 30.01 in 10.0 mi SSW 15.0 mph 20.7 mph N/A   Clear
10:49 AM 44.6 °F 38.1 °F 24.8 °F 46% 30.02 in 10.0 mi SSW 13.8 mph 18.4 mph N/A   Clear
11:12 AM 48.2 °F - 26.6 °F 43% 30.01 in 10.0 mi SSW 17.3 mph - N/A   Clear
11:35 AM 50.0 °F - 26.6 °F 40% 30.00 in 10.0 mi SSW 15.0 mph - N/A   Clear
11:49 AM 50.0 °F - 26.6 °F 40% 30.00 in 10.0 mi SSW 13.8 mph - N/A   Clear
12:09 PM 50.0 °F - 26.6 °F 40% 30.00 in 10.0 mi SSW 11.5 mph - N/A   Clear
12:30 PM 51.8 °F - 26.6 °F 38% 30.00 in 10.0 mi SW 11.5 mph - N/A   Clear
12:54 PM 53.6 °F - 26.6 °F 35% 29.99 in 10.0 mi SSW 12.7 mph - N/A   Clear
1:30 PM 53.6 °F - 26.6 °F 35% 29.97 in 10.0 mi SSW 12.7 mph - N/A   Clear
1:49 PM 53.6 °F - 26.6 °F 35% 29.96 in 10.0 mi SSW 12.7 mph - N/A   Clear
2:12 PM 55.4 °F - 26.6 °F 33% 29.96 in 10.0 mi SSW 15.0 mph - N/A   Clear
2:30 PM 57.2 °F - 28.4 °F 33% 29.97 in 10.0 mi SW 12.7 mph - N/A   Clear
2:52 PM 57.2 °F - 26.6 °F 31% 29.97 in 10.0 mi SW 11.5 mph - N/A   Clear
3:09 PM 57.2 °F - 26.6 °F 31% 29.97 in 10.0 mi SSW 10.4 mph - N/A   Clear
3:32 PM 59.0 °F - 26.6 °F 29% 29.98 in 10.0 mi SW 10.4 mph - N/A   Clear
4:11 PM 57.2 °F - 26.6 °F 31% 29.99 in 10.0 mi SSW 5.8 mph - N/A   Clear
4:29 PM 55.4 °F - 26.6 °F 33% 29.99 in 10.0 mi SSW 5.8 mph - N/A   Clear
4:51 PM 53.6 °F - 26.6 °F 35% 30.00 in 10.0 mi SSW 5.8 mph - N/A   Clear
5:34 PM 48.2 °F - 24.8 °F 40% 30.03 in 10.0 mi SSW 4.6 mph - N/A   Clear
6:12 PM 42.8 °F 39.3 °F 21.2 °F 42% 30.04 in 10.0 mi SSW 5.8 mph - N/A   Clear
7:09 PM 42.8 °F 41.1 °F 24.8 °F 49% 30.06 in 10.0 mi SSW 3.5 mph - N/A   Clear
7:51 PM 39.2 °F 35.9 °F 24.8 °F 56% 30.08 in 10.0 mi SSW 4.6 mph - N/A   Clear
8:12 PM 39.2 °F - 24.8 °F 56% 30.09 in 10.0 mi Calm Calm - N/A   Clear
8:30 PM 37.4 °F - 23.0 °F 56% 30.10 in 10.0 mi Calm Calm - N/A   Clear
8:52 PM 35.6 °F - 21.2 °F 56% 30.10 in 10.0 mi Calm Calm - N/A   Clear
9:12 PM 35.6 °F - 23.0 °F 60% 30.12 in 10.0 mi Calm Calm - N/A   Clear
9:51 PM 30.2 °F 24.3 °F 19.4 °F 64% 30.15 in 10.0 mi North 5.8 mph - N/A   Clear
10:09 PM 35.6 °F 27.5 °F 26.6 °F 70% 30.17 in 10.0 mi North 11.5 mph - N/A   Clear
10:31 PM 39.2 °F 31.6 °F 24.8 °F 56% 30.20 in 10.0 mi NNE 12.7 mph 18.4 mph N/A   Clear
10:50 PM 37.4 °F 26.6 °F 23.0 °F 56% 30.20 in 10.0 mi NNE 21.9 mph 25.3 mph N/A   Clear
11:09 PM 37.4 °F 27.8 °F 23.0 °F 56% 30.21 in 10.0 mi North 17.3 mph 25.3 mph N/A   Clear
11:29 PM 35.6 °F 25.9 °F 21.2 °F 56% 30.22 in 10.0 mi North 16.1 mph 21.9 mph N/A   Clear
11:51 PM 35.6 °F 25.9 °F 21.2 °F 56% 30.23 in 10.0 mi North 16.1 mph 20.7 mph N/A   Clear